sensor_id;sensor_type;location;lat;lon;timestamp;P1;durP1;ratioP1;P2;durP2;ratioP2
23782;SDS011;12071;50.850;4.446;2022-10-19T00:00:46;15.18;;;7.50;;
23782;SDS011;12071;50.850;4.446;2022-10-19T00:03:11;15.43;;;8.00;;
23782;SDS011;12071;50.850;4.446;2022-10-19T00:05:37;22.42;;;7.80;;
23782;SDS011;12071;50.850;4.446;2022-10-19T00:08:03;16.65;;;7.75;;
23782;SDS011;12071;50.850;4.446;2022-10-19T00:10:28;18.33;;;7.57;;
23782;SDS011;12071;50.850;4.446;2022-10-19T00:12:54;19.45;;;7.38;;
23782;SDS011;12071;50.850;4.446;2022-10-19T00:15:20;22.33;;;7.63;;
23782;SDS011;12071;50.850;4.446;2022-10-19T00:17:45;21.50;;;7.88;;
23782;SDS011;12071;50.850;4.446;2022-10-19T00:20:11;18.77;;;7.28;;
23782;SDS011;12071;50.850;4.446;2022-10-19T00:22:37;17.10;;;6.95;;
23782;SDS011;12071;50.850;4.446;2022-10-19T00:25:02;15.35;;;7.45;;
23782;SDS011;12071;50.850;4.446;2022-10-19T00:27:29;17.20;;;7.05;;
23782;SDS011;12071;50.850;4.446;2022-10-19T00:29:55;19.83;;;7.38;;
23782;SDS011;12071;50.850;4.446;2022-10-19T00:32:20;23.92;;;6.57;;
23782;SDS011;12071;50.850;4.446;2022-10-19T00:34:46;21.85;;;7.35;;
23782;SDS011;12071;50.850;4.446;2022-10-19T00:37:12;18.67;;;7.25;;
23782;SDS011;12071;50.850;4.446;2022-10-19T00:39:38;23.30;;;6.68;;
23782;SDS011;12071;50.850;4.446;2022-10-19T00:42:03;19.17;;;7.40;;
23782;SDS011;12071;50.850;4.446;2022-10-19T00:47:02;12.88;;;7.07;;
23782;SDS011;12071;50.850;4.446;2022-10-19T00:49:32;13.48;;;6.28;;
23782;SDS011;12071;50.850;4.446;2022-10-19T00:52:05;15.70;;;6.55;;
23782;SDS011;12071;50.850;4.446;2022-10-19T00:54:35;19.07;;;6.93;;
23782;SDS011;12071;50.850;4.446;2022-10-19T00:57:03;11.30;;;5.63;;
23782;SDS011;12071;50.850;4.446;2022-10-19T00:59:30;16.92;;;6.88;;
23782;SDS011;12071;50.850;4.446;2022-10-19T01:01:57;23.00;;;6.30;;
23782;SDS011;12071;50.850;4.446;2022-10-19T01:04:25;14.77;;;6.45;;
23782;SDS011;12071;50.850;4.446;2022-10-19T01:06:54;15.95;;;6.70;;
23782;SDS011;12071;50.850;4.446;2022-10-19T01:09:20;13.85;;;6.10;;
23782;SDS011;12071;50.850;4.446;2022-10-19T01:11:50;23.23;;;6.30;;
23782;SDS011;12071;50.850;4.446;2022-10-19T01:22:59;15.32;;;6.07;;
23782;SDS011;12071;50.850;4.446;2022-10-19T01:38:44;14.95;;;5.90;;
23782;SDS011;12071;50.850;4.446;2022-10-19T01:41:32;17.83;;;6.10;;
23782;SDS011;12071;50.850;4.446;2022-10-19T01:44:09;17.58;;;6.55;;
23782;SDS011;12071;50.850;4.446;2022-10-19T01:46:39;13.32;;;6.20;;
23782;SDS011;12071;50.850;4.446;2022-10-19T01:49:10;13.80;;;6.28;;
23782;SDS011;12071;50.850;4.446;2022-10-19T01:51:41;17.10;;;6.60;;
23782;SDS011;12071;50.850;4.446;2022-10-19T01:54:16;20.33;;;6.70;;
23782;SDS011;12071;50.850;4.446;2022-10-19T01:56:44;15.65;;;7.45;;
23782;SDS011;12071;50.850;4.446;2022-10-19T01:59:12;14.73;;;7.15;;
23782;SDS011;12071;50.850;4.446;2022-10-19T02:01:41;15.43;;;7.15;;
23782;SDS011;12071;50.850;4.446;2022-10-19T02:04:10;20.75;;;7.53;;
23782;SDS011;12071;50.850;4.446;2022-10-19T02:06:41;14.95;;;6.80;;
23782;SDS011;12071;50.850;4.446;2022-10-19T02:09:07;17.67;;;7.05;;
23782;SDS011;12071;50.850;4.446;2022-10-19T02:11:34;20.15;;;8.07;;
23782;SDS011;12071;50.850;4.446;2022-10-19T02:14:05;25.08;;;7.75;;
23782;SDS011;12071;50.850;4.446;2022-10-19T02:16:36;19.02;;;7.18;;
23782;SDS011;12071;50.850;4.446;2022-10-19T02:19:06;20.27;;;7.93;;
23782;SDS011;12071;50.850;4.446;2022-10-19T02:21:35;18.45;;;7.38;;
23782;SDS011;12071;50.850;4.446;2022-10-19T02:24:00;21.70;;;7.68;;
23782;SDS011;12071;50.850;4.446;2022-10-19T02:26:26;21.83;;;8.35;;
23782;SDS011;12071;50.850;4.446;2022-10-19T02:28:55;13.63;;;7.45;;
23782;SDS011;12071;50.850;4.446;2022-10-19T02:31:21;21.17;;;7.68;;
23782;SDS011;12071;50.850;4.446;2022-10-19T02:33:47;16.92;;;7.38;;
23782;SDS011;12071;50.850;4.446;2022-10-19T02:36:12;19.38;;;8.07;;
23782;SDS011;12071;50.850;4.446;2022-10-19T02:38:38;19.98;;;7.80;;
23782;SDS011;12071;50.850;4.446;2022-10-19T02:41:16;19.83;;;9.23;;
23782;SDS011;12071;50.850;4.446;2022-10-19T02:43:59;21.17;;;8.57;;
23782;SDS011;12071;50.850;4.446;2022-10-19T02:47:02;23.55;;;8.50;;
23782;SDS011;12071;50.850;4.446;2022-10-19T02:49:27;25.90;;;8.93;;
23782;SDS011;12071;50.850;4.446;2022-10-19T02:51:56;21.15;;;8.98;;
23782;SDS011;12071;50.850;4.446;2022-10-19T02:54:24;22.20;;;8.50;;
23782;SDS011;12071;50.850;4.446;2022-10-19T02:56:50;23.75;;;9.10;;
23782;SDS011;12071;50.850;4.446;2022-10-19T02:59:16;24.15;;;9.60;;
23782;SDS011;12071;50.850;4.446;2022-10-19T03:01:42;23.10;;;10.27;;
23782;SDS011;12071;50.850;4.446;2022-10-19T03:04:07;24.88;;;9.40;;
23782;SDS011;12071;50.850;4.446;2022-10-19T03:06:33;19.98;;;9.13;;
23782;SDS011;12071;50.850;4.446;2022-10-19T03:08:58;21.98;;;8.82;;
23782;SDS011;12071;50.850;4.446;2022-10-19T03:11:24;22.85;;;8.75;;
23782;SDS011;12071;50.850;4.446;2022-10-19T03:13:49;18.08;;;8.48;;
23782;SDS011;12071;50.850;4.446;2022-10-19T03:16:15;22.90;;;8.75;;
23782;SDS011;12071;50.850;4.446;2022-10-19T03:18:41;20.00;;;8.10;;
23782;SDS011;12071;50.850;4.446;2022-10-19T03:21:10;27.55;;;9.32;;
23782;SDS011;12071;50.850;4.446;2022-10-19T03:23:37;19.63;;;9.67;;
23782;SDS011;12071;50.850;4.446;2022-10-19T03:26:04;20.40;;;8.85;;
23782;SDS011;12071;50.850;4.446;2022-10-19T03:28:31;25.00;;;9.85;;
23782;SDS011;12071;50.850;4.446;2022-10-19T03:30:56;22.55;;;9.80;;
23782;SDS011;12071;50.850;4.446;2022-10-19T03:33:23;23.30;;;9.20;;
23782;SDS011;12071;50.850;4.446;2022-10-19T03:35:48;29.77;;;10.35;;
23782;SDS011;12071;50.850;4.446;2022-10-19T03:38:14;21.83;;;9.85;;
23782;SDS011;12071;50.850;4.446;2022-10-19T03:40:40;24.98;;;10.48;;
23782;SDS011;12071;50.850;4.446;2022-10-19T03:43:06;24.15;;;10.57;;
23782;SDS011;12071;50.850;4.446;2022-10-19T03:45:31;28.58;;;10.57;;
23782;SDS011;12071;50.850;4.446;2022-10-19T03:47:57;23.60;;;10.30;;
23782;SDS011;12071;50.850;4.446;2022-10-19T03:50:23;25.42;;;10.70;;
23782;SDS011;12071;50.850;4.446;2022-10-19T03:52:49;22.10;;;10.57;;
23782;SDS011;12071;50.850;4.446;2022-10-19T03:55:15;21.92;;;9.98;;
23782;SDS011;12071;50.850;4.446;2022-10-19T03:57:41;23.30;;;9.88;;
23782;SDS011;12071;50.850;4.446;2022-10-19T04:00:07;24.77;;;11.38;;
23782;SDS011;12071;50.850;4.446;2022-10-19T04:02:34;27.83;;;11.32;;
23782;SDS011;12071;50.850;4.446;2022-10-19T04:05:00;20.70;;;10.38;;
23782;SDS011;12071;50.850;4.446;2022-10-19T04:07:25;27.70;;;11.75;;
23782;SDS011;12071;50.850;4.446;2022-10-19T04:09:51;31.02;;;12.00;;
23782;SDS011;12071;50.850;4.446;2022-10-19T04:12:17;26.75;;;12.80;;
23782;SDS011;12071;50.850;4.446;2022-10-19T04:14:42;29.63;;;12.88;;
23782;SDS011;12071;50.850;4.446;2022-10-19T04:17:08;27.23;;;11.48;;
23782;SDS011;12071;50.850;4.446;2022-10-19T04:19:34;25.88;;;11.75;;
23782;SDS011;12071;50.850;4.446;2022-10-19T04:22:00;27.92;;;11.75;;
23782;SDS011;12071;50.850;4.446;2022-10-19T04:24:25;30.42;;;11.25;;
23782;SDS011;12071;50.850;4.446;2022-10-19T04:26:52;26.90;;;11.45;;
23782;SDS011;12071;50.850;4.446;2022-10-19T04:29:19;25.50;;;10.63;;
23782;SDS011;12071;50.850;4.446;2022-10-19T04:31:49;23.92;;;11.45;;
23782;SDS011;12071;50.850;4.446;2022-10-19T04:34:16;34.50;;;12.45;;
23782;SDS011;12071;50.850;4.446;2022-10-19T04:36:42;31.63;;;14.07;;
23782;SDS011;12071;50.850;4.446;2022-10-19T04:39:08;32.13;;;13.00;;
23782;SDS011;12071;50.850;4.446;2022-10-19T04:41:35;30.67;;;13.00;;
23782;SDS011;12071;50.850;4.446;2022-10-19T04:44:02;32.33;;;13.68;;
23782;SDS011;12071;50.850;4.446;2022-10-19T04:46:30;27.88;;;13.63;;
23782;SDS011;12071;50.850;4.446;2022-10-19T04:48:56;31.17;;;12.93;;
23782;SDS011;12071;50.850;4.446;2022-10-19T04:51:22;31.42;;;13.07;;
23782;SDS011;12071;50.850;4.446;2022-10-19T04:53:48;35.40;;;13.57;;
23782;SDS011;12071;50.850;4.446;2022-10-19T04:56:16;35.05;;;14.70;;
23782;SDS011;12071;50.850;4.446;2022-10-19T04:58:44;28.70;;;14.10;;
23782;SDS011;12071;50.850;4.446;2022-10-19T05:01:11;25.95;;;13.68;;
23782;SDS011;12071;50.850;4.446;2022-10-19T05:03:44;34.08;;;14.55;;
23782;SDS011;12071;50.850;4.446;2022-10-19T05:06:11;29.85;;;13.52;;
23782;SDS011;12071;50.850;4.446;2022-10-19T05:08:38;30.83;;;13.82;;
23782;SDS011;12071;50.850;4.446;2022-10-19T05:11:05;29.75;;;13.82;;
23782;SDS011;12071;50.850;4.446;2022-10-19T05:13:32;34.55;;;14.88;;
23782;SDS011;12071;50.850;4.446;2022-10-19T05:15:59;29.30;;;13.85;;
23782;SDS011;12071;50.850;4.446;2022-10-19T05:18:26;31.50;;;14.88;;
23782;SDS011;12071;50.850;4.446;2022-10-19T05:21:11;29.67;;;13.68;;
23782;SDS011;12071;50.850;4.446;2022-10-19T05:23:38;27.92;;;13.10;;
23782;SDS011;12071;50.850;4.446;2022-10-19T05:26:05;29.92;;;12.50;;
23782;SDS011;12071;50.850;4.446;2022-10-19T05:28:33;26.50;;;13.20;;
23782;SDS011;12071;50.850;4.446;2022-10-19T05:31:09;36.50;;;13.55;;
23782;SDS011;12071;50.850;4.446;2022-10-19T05:33:39;33.03;;;13.48;;
23782;SDS011;12071;50.850;4.446;2022-10-19T05:36:13;33.50;;;13.82;;
23782;SDS011;12071;50.850;4.446;2022-10-19T05:38:43;37.88;;;14.23;;
23782;SDS011;12071;50.850;4.446;2022-10-19T05:41:10;36.65;;;16.23;;
23782;SDS011;12071;50.850;4.446;2022-10-19T05:43:36;30.42;;;14.98;;
23782;SDS011;12071;50.850;4.446;2022-10-19T05:46:02;40.50;;;17.33;;
23782;SDS011;12071;50.850;4.446;2022-10-19T05:48:33;40.78;;;15.32;;
23782;SDS011;12071;50.850;4.446;2022-10-19T05:51:00;43.45;;;15.63;;
23782;SDS011;12071;50.850;4.446;2022-10-19T05:53:27;42.13;;;16.23;;
23782;SDS011;12071;50.850;4.446;2022-10-19T05:55:54;39.80;;;17.45;;
23782;SDS011;12071;50.850;4.446;2022-10-19T05:58:20;41.08;;;17.63;;
23782;SDS011;12071;50.850;4.446;2022-10-19T06:00:50;34.55;;;16.27;;
23782;SDS011;12071;50.850;4.446;2022-10-19T06:03:19;40.50;;;16.80;;
23782;SDS011;12071;50.850;4.446;2022-10-19T06:05:46;30.95;;;16.15;;
23782;SDS011;12071;50.850;4.446;2022-10-19T06:08:13;45.17;;;16.83;;
23782;SDS011;12071;50.850;4.446;2022-10-19T06:10:39;40.05;;;19.13;;
23782;SDS011;12071;50.850;4.446;2022-10-19T06:13:04;33.90;;;16.20;;
23782;SDS011;12071;50.850;4.446;2022-10-19T06:15:33;40.45;;;16.77;;
23782;SDS011;12071;50.850;4.446;2022-10-19T06:18:02;44.72;;;17.30;;
23782;SDS011;12071;50.850;4.446;2022-10-19T06:20:28;41.60;;;16.98;;
23782;SDS011;12071;50.850;4.446;2022-10-19T06:22:55;38.17;;;17.15;;
23782;SDS011;12071;50.850;4.446;2022-10-19T06:25:20;40.08;;;17.35;;
23782;SDS011;12071;50.850;4.446;2022-10-19T06:27:46;38.53;;;17.13;;
23782;SDS011;12071;50.850;4.446;2022-10-19T06:30:12;42.80;;;18.15;;
23782;SDS011;12071;50.850;4.446;2022-10-19T06:32:37;35.03;;;18.58;;
23782;SDS011;12071;50.850;4.446;2022-10-19T06:35:03;40.75;;;18.85;;
23782;SDS011;12071;50.850;4.446;2022-10-19T06:37:29;41.22;;;18.42;;
23782;SDS011;12071;50.850;4.446;2022-10-19T06:39:54;38.08;;;17.70;;
23782;SDS011;12071;50.850;4.446;2022-10-19T06:42:20;35.45;;;17.17;;
23782;SDS011;12071;50.850;4.446;2022-10-19T06:44:45;37.83;;;18.02;;
23782;SDS011;12071;50.850;4.446;2022-10-19T06:47:11;37.00;;;17.58;;
23782;SDS011;12071;50.850;4.446;2022-10-19T06:49:36;40.05;;;19.42;;
23782;SDS011;12071;50.850;4.446;2022-10-19T06:52:02;38.88;;;18.63;;
23782;SDS011;12071;50.850;4.446;2022-10-19T06:54:29;40.05;;;18.25;;
23782;SDS011;12071;50.850;4.446;2022-10-19T06:56:55;38.00;;;18.17;;
23782;SDS011;12071;50.850;4.446;2022-10-19T06:59:21;39.80;;;19.88;;
23782;SDS011;12071;50.850;4.446;2022-10-19T07:01:46;38.95;;;19.80;;
23782;SDS011;12071;50.850;4.446;2022-10-19T07:04:12;43.15;;;19.60;;
23782;SDS011;12071;50.850;4.446;2022-10-19T07:06:37;40.67;;;19.65;;
23782;SDS011;12071;50.850;4.446;2022-10-19T07:09:03;44.42;;;20.48;;
23782;SDS011;12071;50.850;4.446;2022-10-19T07:11:28;38.60;;;20.00;;
23782;SDS011;12071;50.850;4.446;2022-10-19T07:13:54;38.05;;;19.70;;
23782;SDS011;12071;50.850;4.446;2022-10-19T07:16:20;46.85;;;19.85;;
23782;SDS011;12071;50.850;4.446;2022-10-19T07:18:46;45.83;;;20.13;;
23782;SDS011;12071;50.850;4.446;2022-10-19T07:21:14;39.92;;;20.42;;
23782;SDS011;12071;50.850;4.446;2022-10-19T07:23:41;38.70;;;19.85;;
23782;SDS011;12071;50.850;4.446;2022-10-19T07:26:10;43.20;;;19.75;;
23782;SDS011;12071;50.850;4.446;2022-10-19T07:28:38;46.17;;;20.60;;
23782;SDS011;12071;50.850;4.446;2022-10-19T07:31:07;38.08;;;19.80;;
23782;SDS011;12071;50.850;4.446;2022-10-19T07:33:36;37.65;;;20.40;;
23782;SDS011;12071;50.850;4.446;2022-10-19T07:36:03;44.55;;;20.13;;
23782;SDS011;12071;50.850;4.446;2022-10-19T07:38:31;46.28;;;20.42;;
23782;SDS011;12071;50.850;4.446;2022-10-19T07:41:11;38.65;;;20.05;;
23782;SDS011;12071;50.850;4.446;2022-10-19T07:43:39;40.07;;;19.03;;
23782;SDS011;12071;50.850;4.446;2022-10-19T07:46:07;39.67;;;19.25;;
23782;SDS011;12071;50.850;4.446;2022-10-19T07:48:34;36.28;;;18.52;;
23782;SDS011;12071;50.850;4.446;2022-10-19T07:51:01;34.03;;;19.20;;
23782;SDS011;12071;50.850;4.446;2022-10-19T07:53:28;41.40;;;18.67;;
23782;SDS011;12071;50.850;4.446;2022-10-19T07:55:54;30.83;;;17.98;;
23782;SDS011;12071;50.850;4.446;2022-10-19T07:58:20;34.30;;;17.48;;
23782;SDS011;12071;50.850;4.446;2022-10-19T08:00:45;35.00;;;17.75;;
23782;SDS011;12071;50.850;4.446;2022-10-19T08:03:11;39.65;;;17.73;;
23782;SDS011;12071;50.850;4.446;2022-10-19T08:05:37;36.13;;;16.40;;
23782;SDS011;12071;50.850;4.446;2022-10-19T08:08:02;40.85;;;16.70;;
23782;SDS011;12071;50.850;4.446;2022-10-19T08:10:28;33.20;;;16.17;;
23782;SDS011;12071;50.850;4.446;2022-10-19T08:12:54;39.33;;;15.07;;
23782;SDS011;12071;50.850;4.446;2022-10-19T08:15:20;31.45;;;15.60;;
23782;SDS011;12071;50.850;4.446;2022-10-19T08:17:45;28.23;;;15.23;;
23782;SDS011;12071;50.850;4.446;2022-10-19T08:20:11;29.60;;;15.00;;
23782;SDS011;12071;50.850;4.446;2022-10-19T08:22:36;31.23;;;14.68;;
23782;SDS011;12071;50.850;4.446;2022-10-19T08:25:02;24.65;;;14.00;;
23782;SDS011;12071;50.850;4.446;2022-10-19T08:27:28;25.95;;;14.02;;
23782;SDS011;12071;50.850;4.446;2022-10-19T08:29:54;31.00;;;13.40;;
23782;SDS011;12071;50.850;4.446;2022-10-19T08:32:20;28.60;;;12.95;;
23782;SDS011;12071;50.850;4.446;2022-10-19T08:34:46;26.65;;;12.85;;
23782;SDS011;12071;50.850;4.446;2022-10-19T08:37:11;21.15;;;12.73;;
23782;SDS011;12071;50.850;4.446;2022-10-19T08:39:37;25.73;;;13.30;;
23782;SDS011;12071;50.850;4.446;2022-10-19T08:42:13;21.73;;;11.80;;
23782;SDS011;12071;50.850;4.446;2022-10-19T08:44:50;23.33;;;12.20;;
23782;SDS011;12071;50.850;4.446;2022-10-19T08:48:38;23.77;;;11.45;;
23782;SDS011;12071;50.850;4.446;2022-10-19T08:50:51;29.23;;;11.98;;
23782;SDS011;12071;50.850;4.446;2022-10-19T08:53:23;27.13;;;12.45;;
23782;SDS011;12071;50.850;4.446;2022-10-19T09:01:33;19.70;;;9.65;;
23782;SDS011;12071;50.850;4.446;2022-10-19T09:04:23;19.10;;;10.18;;
23782;SDS011;12071;50.850;4.446;2022-10-19T09:09:54;22.00;;;10.07;;
23782;SDS011;12071;50.850;4.446;2022-10-19T09:12:38;21.63;;;11.10;;
23782;SDS011;12071;50.850;4.446;2022-10-19T09:15:14;22.27;;;11.23;;
23782;SDS011;12071;50.850;4.446;2022-10-19T09:17:43;17.55;;;9.88;;
23782;SDS011;12071;50.850;4.446;2022-10-19T09:20:13;20.45;;;10.38;;
23782;SDS011;12071;50.850;4.446;2022-10-19T09:22:45;18.38;;;9.75;;
23782;SDS011;12071;50.850;4.446;2022-10-19T09:25:21;19.95;;;9.73;;
23782;SDS011;12071;50.850;4.446;2022-10-19T09:27:52;21.40;;;9.68;;
23782;SDS011;12071;50.850;4.446;2022-10-19T09:30:36;20.15;;;8.95;;
23782;SDS011;12071;50.850;4.446;2022-10-19T09:33:05;20.77;;;9.77;;
23782;SDS011;12071;50.850;4.446;2022-10-19T09:35:40;15.40;;;8.90;;
23782;SDS011;12071;50.850;4.446;2022-10-19T09:38:09;17.67;;;9.23;;
23782;SDS011;12071;50.850;4.446;2022-10-19T09:40:38;19.83;;;9.93;;
23782;SDS011;12071;50.850;4.446;2022-10-19T09:43:04;22.50;;;9.23;;
23782;SDS011;12071;50.850;4.446;2022-10-19T09:45:51;17.92;;;9.60;;
23782;SDS011;12071;50.850;4.446;2022-10-19T09:50:59;17.70;;;9.15;;
23782;SDS011;12071;50.850;4.446;2022-10-19T09:53:26;17.03;;;9.23;;
23782;SDS011;12071;50.850;4.446;2022-10-19T09:55:58;21.00;;;9.52;;
23782;SDS011;12071;50.850;4.446;2022-10-19T09:58:30;21.83;;;10.18;;
23782;SDS011;12071;50.850;4.446;2022-10-19T10:00:55;20.80;;;10.23;;
23782;SDS011;12071;50.850;4.446;2022-10-19T10:06:05;23.00;;;10.93;;
23782;SDS011;12071;50.850;4.446;2022-10-19T10:08:32;20.45;;;10.05;;
23782;SDS011;12071;50.850;4.446;2022-10-19T10:11:21;18.58;;;9.95;;
23782;SDS011;12071;50.850;4.446;2022-10-19T10:14:04;19.75;;;9.70;;
23782;SDS011;12071;50.850;4.446;2022-10-19T10:16:40;22.27;;;10.23;;
23782;SDS011;12071;50.850;4.446;2022-10-19T10:19:06;24.92;;;9.95;;
23782;SDS011;12071;50.850;4.446;2022-10-19T10:21:45;19.98;;;9.82;;
23782;SDS011;12071;50.850;4.446;2022-10-19T10:24:18;19.33;;;10.30;;
23782;SDS011;12071;50.850;4.446;2022-10-19T10:26:47;17.67;;;9.77;;
23782;SDS011;12071;50.850;4.446;2022-10-19T10:32:17;16.17;;;9.80;;
23782;SDS011;12071;50.850;4.446;2022-10-19T10:37:20;19.05;;;9.45;;
23782;SDS011;12071;50.850;4.446;2022-10-19T10:39:53;18.45;;;9.27;;
23782;SDS011;12071;50.850;4.446;2022-10-19T10:42:24;21.38;;;9.35;;
23782;SDS011;12071;50.850;4.446;2022-10-19T10:44:54;21.52;;;10.10;;
23782;SDS011;12071;50.850;4.446;2022-10-19T10:47:20;18.75;;;8.95;;
23782;SDS011;12071;50.850;4.446;2022-10-19T10:49:59;20.73;;;8.43;;
23782;SDS011;12071;50.850;4.446;2022-10-19T10:52:29;17.67;;;8.90;;
23782;SDS011;12071;50.850;4.446;2022-10-19T10:55:02;26.75;;;10.15;;
23782;SDS011;12071;50.850;4.446;2022-10-19T10:57:42;22.33;;;10.15;;
23782;SDS011;12071;50.850;4.446;2022-10-19T11:00:13;23.42;;;10.10;;
23782;SDS011;12071;50.850;4.446;2022-10-19T11:11:00;19.13;;;8.95;;
23782;SDS011;12071;50.850;4.446;2022-10-19T11:13:40;18.52;;;8.73;;
23782;SDS011;12071;50.850;4.446;2022-10-19T11:16:17;21.73;;;8.75;;
23782;SDS011;12071;50.850;4.446;2022-10-19T11:18:49;18.52;;;8.68;;
23782;SDS011;12071;50.850;4.446;2022-10-19T11:23:52;21.13;;;9.80;;
23782;SDS011;12071;50.850;4.446;2022-10-19T11:39:07;20.98;;;8.88;;
23782;SDS011;12071;50.850;4.446;2022-10-19T11:41:25;17.10;;;9.45;;
23782;SDS011;12071;50.850;4.446;2022-10-19T11:44:01;17.60;;;8.70;;
23782;SDS011;12071;50.850;4.446;2022-10-19T11:54:55;18.67;;;9.02;;
23782;SDS011;12071;50.850;4.446;2022-10-19T11:57:30;17.52;;;9.07;;
23782;SDS011;12071;50.850;4.446;2022-10-19T12:02:44;21.55;;;10.07;;
23782;SDS011;12071;50.850;4.446;2022-10-19T12:08:01;19.60;;;9.65;;
23782;SDS011;12071;50.850;4.446;2022-10-19T12:13:10;21.45;;;9.48;;
23782;SDS011;12071;50.850;4.446;2022-10-19T12:18:34;17.52;;;9.55;;
23782;SDS011;12071;50.850;4.446;2022-10-19T12:21:08;20.85;;;9.73;;
23782;SDS011;12071;50.850;4.446;2022-10-19T12:23:38;21.90;;;9.07;;
23782;SDS011;12071;50.850;4.446;2022-10-19T12:26:08;20.15;;;9.23;;
23782;SDS011;12071;50.850;4.446;2022-10-19T12:28:39;24.08;;;8.93;;
23782;SDS011;12071;50.850;4.446;2022-10-19T12:31:08;20.13;;;9.63;;
23782;SDS011;12071;50.850;4.446;2022-10-19T12:46:52;15.18;;;9.07;;
23782;SDS011;12071;50.850;4.446;2022-10-19T12:54:23;15.45;;;8.85;;
23782;SDS011;12071;50.850;4.446;2022-10-19T12:56:51;15.15;;;8.38;;
23782;SDS011;12071;50.850;4.446;2022-10-19T12:59:25;17.27;;;7.78;;
23782;SDS011;12071;50.850;4.446;2022-10-19T13:01:51;22.55;;;8.73;;
23782;SDS011;12071;50.850;4.446;2022-10-19T13:04:28;15.07;;;7.90;;
23782;SDS011;12071;50.850;4.446;2022-10-19T13:27:44;15.02;;;6.85;;
23782;SDS011;12071;50.850;4.446;2022-10-19T13:36:08;11.85;;;6.47;;
23782;SDS011;12071;50.850;4.446;2022-10-19T13:41:23;20.73;;;7.00;;
23782;SDS011;12071;50.850;4.446;2022-10-19T14:05:37;14.90;;;6.82;;
23782;SDS011;12071;50.850;4.446;2022-10-19T14:08:33;18.55;;;7.05;;
23782;SDS011;12071;50.850;4.446;2022-10-19T14:11:16;15.05;;;7.05;;
23782;SDS011;12071;50.850;4.446;2022-10-19T14:19:39;13.57;;;6.22;;
23782;SDS011;12071;50.850;4.446;2022-10-19T14:25:02;14.45;;;6.85;;
23782;SDS011;12071;50.850;4.446;2022-10-19T14:27:40;13.05;;;7.60;;
23782;SDS011;12071;50.850;4.446;2022-10-19T14:30:19;11.13;;;6.90;;
23782;SDS011;12071;50.850;4.446;2022-10-19T14:32:44;17.13;;;7.57;;
23782;SDS011;12071;50.850;4.446;2022-10-19T14:35:21;14.02;;;7.30;;
23782;SDS011;12071;50.850;4.446;2022-10-19T14:37:53;13.77;;;6.95;;
23782;SDS011;12071;50.850;4.446;2022-10-19T14:40:30;18.58;;;7.45;;
23782;SDS011;12071;50.850;4.446;2022-10-19T14:42:58;13.68;;;7.32;;
23782;SDS011;12071;50.850;4.446;2022-10-19T14:45:29;16.67;;;8.15;;
23782;SDS011;12071;50.850;4.446;2022-10-19T14:48:00;17.55;;;7.88;;
23782;SDS011;12071;50.850;4.446;2022-10-19T14:55:53;13.80;;;8.55;;
23782;SDS011;12071;50.850;4.446;2022-10-19T14:58:22;17.02;;;9.35;;
23782;SDS011;12071;50.850;4.446;2022-10-19T15:00:49;19.52;;;8.98;;
23782;SDS011;12071;50.850;4.446;2022-10-19T15:03:26;20.25;;;9.32;;
23782;SDS011;12071;50.850;4.446;2022-10-19T15:05:54;16.48;;;9.32;;
23782;SDS011;12071;50.850;4.446;2022-10-19T15:08:28;15.02;;;9.05;;
23782;SDS011;12071;50.850;4.446;2022-10-19T15:11:04;15.47;;;8.87;;
23782;SDS011;12071;50.850;4.446;2022-10-19T15:13:35;16.77;;;9.25;;
23782;SDS011;12071;50.850;4.446;2022-10-19T15:16:05;14.50;;;9.13;;
23782;SDS011;12071;50.850;4.446;2022-10-19T15:18:50;17.27;;;10.18;;
23782;SDS011;12071;50.850;4.446;2022-10-19T15:21:17;15.13;;;10.52;;
23782;SDS011;12071;50.850;4.446;2022-10-19T15:23:45;22.55;;;10.63;;
23782;SDS011;12071;50.850;4.446;2022-10-19T15:28:50;17.08;;;9.77;;
23782;SDS011;12071;50.850;4.446;2022-10-19T15:33:57;16.63;;;10.82;;
23782;SDS011;12071;50.850;4.446;2022-10-19T15:36:25;18.48;;;11.55;;
23782;SDS011;12071;50.850;4.446;2022-10-19T15:41:29;16.65;;;11.00;;
23782;SDS011;12071;50.850;4.446;2022-10-19T15:43:58;20.20;;;10.48;;
23782;SDS011;12071;50.850;4.446;2022-10-19T15:48:59;21.23;;;12.93;;
23782;SDS011;12071;50.850;4.446;2022-10-19T15:51:41;23.77;;;11.75;;
23782;SDS011;12071;50.850;4.446;2022-10-19T15:54:09;22.30;;;12.45;;
23782;SDS011;12071;50.850;4.446;2022-10-19T15:56:36;26.15;;;13.15;;
23782;SDS011;12071;50.850;4.446;2022-10-19T15:59:04;25.65;;;13.27;;
23782;SDS011;12071;50.850;4.446;2022-10-19T16:01:34;26.55;;;14.10;;
23782;SDS011;12071;50.850;4.446;2022-10-19T16:04:01;21.88;;;13.80;;
23782;SDS011;12071;50.850;4.446;2022-10-19T16:06:28;22.02;;;14.38;;
23782;SDS011;12071;50.850;4.446;2022-10-19T16:08:56;23.35;;;14.82;;
23782;SDS011;12071;50.850;4.446;2022-10-19T16:11:22;27.63;;;14.80;;
23782;SDS011;12071;50.850;4.446;2022-10-19T16:13:49;27.20;;;14.52;;
23782;SDS011;12071;50.850;4.446;2022-10-19T16:16:19;29.48;;;16.60;;
23782;SDS011;12071;50.850;4.446;2022-10-19T16:18:55;25.23;;;15.68;;
23782;SDS011;12071;50.850;4.446;2022-10-19T16:21:22;24.33;;;16.02;;
23782;SDS011;12071;50.850;4.446;2022-10-19T16:23:50;32.15;;;16.55;;
23782;SDS011;12071;50.850;4.446;2022-10-19T16:26:16;28.75;;;16.25;;
23782;SDS011;12071;50.850;4.446;2022-10-19T16:28:42;27.20;;;16.52;;
23782;SDS011;12071;50.850;4.446;2022-10-19T16:31:09;27.73;;;17.15;;
23782;SDS011;12071;50.850;4.446;2022-10-19T16:33:35;26.63;;;16.13;;
23782;SDS011;12071;50.850;4.446;2022-10-19T16:36:04;30.08;;;17.13;;
23782;SDS011;12071;50.850;4.446;2022-10-19T16:38:31;26.80;;;16.67;;
23782;SDS011;12071;50.850;4.446;2022-10-19T16:41:00;28.92;;;17.67;;
23782;SDS011;12071;50.850;4.446;2022-10-19T16:43:27;29.33;;;16.98;;
23782;SDS011;12071;50.850;4.446;2022-10-19T16:45:53;26.75;;;17.05;;
23782;SDS011;12071;50.850;4.446;2022-10-19T16:48:18;29.02;;;16.85;;
23782;SDS011;12071;50.850;4.446;2022-10-19T16:50:44;26.02;;;17.10;;
23782;SDS011;12071;50.850;4.446;2022-10-19T16:53:10;24.13;;;15.95;;
23782;SDS011;12071;50.850;4.446;2022-10-19T16:55:36;24.25;;;17.10;;
23782;SDS011;12071;50.850;4.446;2022-10-19T16:58:03;26.85;;;18.08;;
23782;SDS011;12071;50.850;4.446;2022-10-19T17:00:29;26.70;;;16.95;;
23782;SDS011;12071;50.850;4.446;2022-10-19T17:02:55;25.83;;;16.75;;
23782;SDS011;12071;50.850;4.446;2022-10-19T17:05:20;33.17;;;17.48;;
23782;SDS011;12071;50.850;4.446;2022-10-19T17:07:46;27.02;;;17.70;;
23782;SDS011;12071;50.850;4.446;2022-10-19T17:10:12;27.77;;;17.92;;
23782;SDS011;12071;50.850;4.446;2022-10-19T17:12:38;33.97;;;17.73;;
23782;SDS011;12071;50.850;4.446;2022-10-19T17:15:04;27.00;;;17.67;;
23782;SDS011;12071;50.850;4.446;2022-10-19T17:17:31;29.13;;;18.25;;
23782;SDS011;12071;50.850;4.446;2022-10-19T17:19:57;29.00;;;19.35;;
23782;SDS011;12071;50.850;4.446;2022-10-19T17:22:22;28.58;;;18.17;;
23782;SDS011;12071;50.850;4.446;2022-10-19T17:24:48;27.98;;;17.95;;
23782;SDS011;12071;50.850;4.446;2022-10-19T17:27:13;28.10;;;18.05;;
23782;SDS011;12071;50.850;4.446;2022-10-19T17:29:40;28.27;;;17.85;;
23782;SDS011;12071;50.850;4.446;2022-10-19T17:32:06;31.75;;;18.63;;
23782;SDS011;12071;50.850;4.446;2022-10-19T17:34:32;27.40;;;17.88;;
23782;SDS011;12071;50.850;4.446;2022-10-19T17:36:57;28.27;;;18.50;;
23782;SDS011;12071;50.850;4.446;2022-10-19T17:39:23;33.92;;;18.55;;